Time;durP1;ratioP1;P1;durP2;ratioP2;P2;SDS_P1;SDS_P2;PMS_P1;PMS_P2;Temp;Humidity;BMP_temperature;BMP_pressure;BME280_temperature;BME280_humidity;BME280_pressure;Samples;Min_cycle;Max_cycle;Signal;HPM_P1;HPM_P2
2022/07/26 00:04:31;;;;;;;6.43;3.22;;;;;;;21.67;51.47;100012.69;18296292;32;20447;-56
2022/07/26 00:14:35;;;;;;;9.52;3.87;;;;;;;21.61;51.57;99997.91;18296391;32;20146;-56
2022/07/26 00:24:39;;;;;;;8.48;3.45;;;;;;;21.38;53.20;100006.25;18295887;32;20117;-56
2022/07/26 00:34:43;;;;;;;9.00;3.95;;;;;;;21.44;53.29;99993.53;18295593;32;20134;-56
2022/07/26 00:44:47;;;;;;;8.35;3.75;;;;;;;21.45;53.55;99981.09;18348411;32;20604;-56
2022/07/26 00:54:53;;;;;;;8.70;3.40;;;;;;;21.45;53.72;99978.44;18294798;32;20382;-55
2022/07/26 01:04:56;;;;;;;7.10;3.40;;;;;;;21.25;53.51;99979.53;18295470;32;20105;-56
2022/07/26 01:15:01;;;;;;;7.97;3.90;;;;;;;21.13;54.37;99959.81;18293903;32;20116;-58
2022/07/26 01:25:08;;;;;;;9.30;3.62;;;;;;;21.12;54.17;99945.69;18293762;32;20480;-57
2022/07/26 01:35:12;;;;;;;7.68;3.60;;;;;;;21.03;54.07;99944.38;18293237;32;20145;-58
2022/07/26 01:45:17;;;;;;;10.00;3.55;;;;;;;21.02;54.43;99933.84;18292505;32;20094;-57
2022/07/26 01:55:20;;;;;;;9.38;4.10;;;;;;;20.90;54.90;99927.38;18292458;32;20172;-55
2022/07/26 02:05:25;;;;;;;7.28;3.60;;;;;;;20.67;56.49;99918.81;18291991;32;20093;-55
2022/07/26 02:15:29;;;;;;;11.52;4.05;;;;;;;20.73;56.91;99912.34;18291487;32;20093;-56
2022/07/26 02:25:33;;;;;;;6.87;3.37;;;;;;;20.70;56.93;99915.16;18291020;32;20442;-55
2022/07/26 02:35:37;;;;;;;6.87;3.12;;;;;;;20.51;57.20;99906.34;18290610;32;20128;-55
2022/07/26 02:45:41;;;;;;;7.10;3.62;;;;;;;20.70;56.53;99921.31;18290292;32;20433;-55
2022/07/26 02:55:45;;;;;;;8.23;3.37;;;;;;;20.50;56.91;99923.19;18289810;32;20113;-55
2022/07/26 03:05:49;;;;;;;8.05;3.87;;;;;;;20.48;57.20;99924.22;18296583;32;20423;-55
2022/07/26 03:15:52;;;;;;;8.32;3.72;;;;;;;20.34;57.62;99919.63;18299638;32;20090;-55
2022/07/26 03:25:57;;;;;;;7.47;3.87;;;;;;;20.20;58.07;99923.84;18297918;32;20129;-55
2022/07/26 03:36:00;;;;;;;8.43;3.78;;;;;;;20.34;57.78;99927.56;18297928;32;20093;-55
2022/07/26 03:46:05;;;;;;;8.45;4.00;;;;;;;20.27;58.28;99924.37;18297589;32;20123;-55
2022/07/26 04:06:31;;;;;;;10.03;4.60;;;;;;;20.87;58.09;99907.22;18296628;32;20108;-55
2022/07/26 04:16:35;;;;;;;5.95;3.20;;;;;;;21.06;57.75;99900.91;18295771;32;20103;-55
2022/07/26 04:26:46;;;;;;;10.00;3.87;;;;;;;21.93;55.28;99890.81;18296017;32;20339;-55
2022/07/26 04:36:50;;;;;;;5.43;2.35;;;;;;;22.67;53.72;99890.91;18295498;32;20106;-55
2022/07/26 04:46:54;;;;;;;6.22;2.45;;;;;;;23.24;46.47;99906.97;18295200;32;20093;-55
2022/07/26 04:56:58;;;;;;;6.80;2.55;;;;;;;23.55;45.32;99929.00;18295002;32;20094;-55
2022/07/26 05:07:02;;;;;;;8.63;3.10;;;;;;;23.53;46.69;99909.59;18295150;32;20385;-55
2022/07/26 05:17:07;;;;;;;6.18;2.92;;;;;;;23.07;48.53;99919.53;18294222;32;20094;-56
2022/07/26 05:27:13;;;;;;;5.43;2.55;;;;;;;22.93;48.07;99927.50;18293550;32;20086;-57
2022/07/26 05:37:17;;;;;;;5.25;2.60;;;;;;;24.41;45.50;99929.62;18293261;32;20098;-57
2022/07/26 05:47:21;;;;;;;6.78;2.53;;;;;;;25.03;39.78;99922.72;18292753;32;20182;-57
2022/07/26 05:57:25;;;;;;;7.95;2.70;;;;;;;25.82;39.48;99926.94;18345054;32;20175;-57
2022/07/26 06:07:29;;;;;;;7.87;2.92;;;;;;;26.47;39.12;99923.06;18292017;32;20108;-58
2022/07/26 06:17:33;;;;;;;7.72;3.42;;;;;;;27.12;37.88;99926.06;18291306;32;20433;-58
2022/07/26 06:27:37;;;;;;;8.35;2.92;;;;;;;27.43;35.05;99920.94;18291125;32;20101;-58
2022/07/26 06:37:41;;;;;;;11.35;3.65;;;;;;;28.03;33.89;99909.78;18347049;32;20116;-58
2022/07/26 06:47:46;;;;;;;8.15;3.00;;;;;;;29.12;34.48;99921.22;18299604;32;20094;-58
2022/07/26 06:57:49;;;;;;;6.95;3.28;;;;;;;29.95;34.19;99904.84;18299460;32;20117;-55
2022/07/26 07:07:54;;;;;;;6.75;3.35;;;;;;;30.64;34.93;99895.81;18299076;32;20085;-55
2022/07/26 07:17:59;;;;;;;8.00;3.62;;;;;;;31.21;34.62;99876.88;18299053;31;20180;-55
2022/07/26 07:28:04;;;;;;;6.90;3.35;;;;;;;31.66;34.46;99875.19;18298405;32;20102;-55
2022/07/26 07:38:08;;;;;;;8.95;4.12;;;;;;;32.36;33.63;99879.00;18297945;32;20112;-55
2022/07/26 07:48:12;;;;;;;6.50;3.20;;;;;;;32.28;33.45;99886.19;18296787;32;20115;-54
2022/07/26 07:58:16;;;;;;;7.18;3.72;;;;;;;32.36;33.24;99899.75;18297665;32;20109;-55
2022/07/26 08:08:22;;;;;;;8.25;3.60;;;;;;;32.60;33.51;99890.12;18296807;32;20104;-55
2022/07/26 08:18:25;;;;;;;7.10;3.60;;;;;;;32.63;32.85;99890.66;18296476;32;20442;-54
2022/07/26 08:28:30;;;;;;;7.82;3.67;;;;;;;32.77;33.49;99912.66;18295389;32;20093;-54
2022/07/26 08:38:51;;;;;;;8.00;3.72;;;;;;;32.34;34.20;99910.69;18295642;32;20539;-54
2022/07/26 08:48:56;;;;;;;7.05;3.40;;;;;;;32.38;34.28;99903.16;18295329;32;20162;-54
2022/07/26 08:59:06;;;;;;;7.37;3.12;;;;;;;32.33;35.47;99890.09;18294552;32;20127;-54
2022/07/26 09:09:11;;;;;;;7.22;3.47;;;;;;;31.86;35.98;99907.44;18294342;32;20102;-54
2022/07/26 09:19:17;;;;;;;6.78;3.25;;;;;;;32.22;35.50;99906.56;18293944;32;20467;-57
2022/07/26 09:29:22;;;;;;;7.30;3.45;;;;;;;32.12;36.03;99933.66;18294507;32;20135;-56
2022/07/26 09:39:26;;;;;;;7.10;3.50;;;;;;;31.74;36.14;99932.94;18293545;32;20108;-55
2022/07/26 09:49:37;;;;;;;8.23;3.45;;;;;;;31.58;36.77;99961.41;18345746;32;20112;-54
2022/07/26 09:59:43;;;;;;;8.85;3.30;;;;;;;31.59;35.52;100006.28;18292655;32;20109;-54
2022/07/26 10:09:52;;;;;;;6.50;2.72;;;;;;;30.73;38.69;100065.53;18291177;32;20113;-53
2022/07/26 10:19:56;;;;;;;7.83;3.13;;;;;;;29.23;46.36;100054.66;18344141;32;20085;-53
2022/07/26 10:30:24;;;;;;;9.90;3.85;;;;;;;27.39;55.96;100096.31;18290956;32;20741;-56
2022/07/26 10:40:37;;;;;;;8.90;3.75;;;;;;;26.57;60.67;100015.91;18291002;32;20086;-55
2022/07/26 10:50:43;;;;;;;10.68;3.67;;;;;;;26.13;64.33;100012.88;18291175;32;20412;-55
2022/07/26 11:00:58;;;;;;;9.52;3.30;;;;;;;26.36;62.51;100045.13;18342111;32;20386;-55
2022/07/26 11:11:02;;;;;;;9.05;4.05;;;;;;;26.38;65.45;100088.69;18288620;32;20094;-56
2022/07/26 11:21:10;;;;;;;9.10;4.00;;;;;;;26.56;65.43;100090.97;18290249;32;20474;-55
2022/07/26 11:31:15;;;;;;;10.07;4.35;;;;;;;26.47;63.79;100083.63;18298231;32;20113;-55
2022/07/26 11:41:23;;;;;;;8.55;4.18;;;;;;;26.55;62.97;100091.91;18297928;32;20401;-55
2022/07/26 11:51:38;;;;;;;8.88;3.60;;;;;;;26.67;64.00;100069.59;18350996;32;20368;-55
2022/07/26 12:01:41;;;;;;;10.05;4.28;;;;;;;26.50;63.88;100083.38;18349430;32;20093;-55
2022/07/26 12:11:53;;;;;;;7.20;3.37;;;;;;;26.10;65.17;100079.12;18296457;31;20154;-55
2022/07/26 12:21:59;;;;;;;6.32;3.30;;;;;;;26.83;62.98;100085.34;18349510;32;20107;-55
2022/07/26 12:32:09;;;;;;;7.55;3.55;;;;;;;26.65;60.65;100082.22;18295203;32;20390;-55
2022/07/26 12:42:22;;;;;;;9.43;3.50;;;;;;;26.65;61.50;100052.78;18295540;32;20086;-56
2022/07/26 12:52:36;;;;;;;;;;;;;;;26.74;60.73;100049.41;18348023;32;20090;-56
2022/07/26 13:02:41;;;;;;;8.38;3.85;;;;;;;26.93;59.44;100063.25;18348563;32;20315;-56
2022/07/26 13:12:46;;;;;;;8.27;3.30;;;;;;;26.96;58.95;100071.91;18295104;32;20108;-54
2022/07/26 13:22:49;;;;;;;7.90;3.67;;;;;;;28.18;55.38;100059.75;18295071;32;20666;-55
2022/07/26 13:32:54;;;;;;;7.35;3.50;;;;;;;28.37;54.51;100054.59;18345604;32;20132;-55
2022/07/26 13:42:57;;;;;;;7.60;3.85;;;;;;;28.32;54.96;100046.06;18292458;32;20446;-55
2022/07/26 13:53:01;;;;;;;8.02;3.97;;;;;;;28.57;52.95;100068.19;18292410;32;20093;-56
2022/07/26 14:03:05;;;;;;;10.43;4.28;;;;;;;28.62;53.22;100051.69;18345075;32;20112;-56
2022/07/26 14:13:10;;;;;;;9.60;4.68;;;;;;;28.86;51.41;100062.22;18291475;32;20378;-55
2022/07/26 14:23:13;;;;;;;10.25;5.15;;;;;;;29.17;50.38;100059.56;18291785;32;20120;-55
2022/07/26 14:33:17;;;;;;;11.73;5.45;;;;;;;29.28;51.14;100063.16;18290986;32;20098;-55
2022/07/26 14:43:21;;;;;;;12.40;6.35;;;;;;;29.71;51.05;100061.25;18290724;32;20102;-55
2022/07/26 14:53:26;;;;;;;11.68;6.15;;;;;;;29.57;49.79;100062.47;18290002;32;20097;-55
2022/07/26 15:03:32;;;;;;;12.77;6.65;;;;;;;29.43;50.46;100052.91;18298447;32;20109;-55
2022/07/26 15:13:36;;;;;;;12.10;6.32;;;;;;;29.47;50.32;100047.13;18298508;32;20141;-55
2022/07/26 15:23:40;;;;;;;12.20;6.18;;;;;;;29.29;50.19;100051.41;18298533;32;20102;-55
2022/07/26 15:33:44;;;;;;;9.90;5.62;;;;;;;29.15;51.12;100045.41;18298203;32;20152;-55
2022/07/26 15:43:48;;;;;;;10.20;5.60;;;;;;;29.22;50.69;100037.66;18297679;32;20098;-55
2022/07/26 15:53:53;;;;;;;10.95;6.25;;;;;;;29.45;47.17;100029.44;18312102;32;20140;-54
2022/07/26 16:03:56;;;;;;;11.48;6.62;;;;;;;29.25;47.87;100012.38;18306548;32;20113;-54
2022/07/26 16:14:00;;;;;;;12.48;6.30;;;;;;;29.14;48.56;99981.91;18295565;32;20571;-55
2022/07/26 16:24:04;;;;;;;11.95;7.18;;;;;;;29.10;47.53;99999.28;18296482;32;20113;-54
2022/07/26 16:34:11;;;;;;;13.95;8.90;;;;;;;29.08;47.36;100003.94;18296207;32;20425;-55
2022/07/26 16:44:15;;;;;;;13.77;8.35;;;;;;;28.90;47.73;100007.22;18295462;32;20104;-54
2022/07/26 16:54:19;;;;;;;15.88;9.38;;;;;;;28.91;47.08;100008.94;18294706;32;20089;-54
2022/07/26 17:04:23;;;;;;;15.25;9.18;;;;;;;28.69;46.69;99998.31;18294699;32;20101;-54
2022/07/26 17:14:28;;;;;;;14.32;8.95;;;;;;;28.72;46.91;100019.50;18294161;32;20117;-54
2022/07/26 17:24:31;;;;;;;14.73;9.65;;;;;;;28.56;46.19;100020.84;18294033;32;20106;-54
2022/07/26 17:34:36;;;;;;;16.45;9.52;;;;;;;28.46;46.13;100036.84;18293798;32;20399;-54
2022/07/26 17:44:39;;;;;;;15.38;10.25;;;;;;;28.20;46.73;100057.81;18293151;32;20145;-55
2022/07/26 17:54:44;;;;;;;14.82;9.70;;;;;;;28.06;47.14;100054.37;18345277;32;20106;-55
2022/07/26 18:04:48;;;;;;;16.48;10.85;;;;;;;28.03;47.43;100030.50;18292266;31;20094;-55
2022/07/26 18:14:52;;;;;;;15.98;10.88;;;;;;;27.76;48.60;100045.19;18292525;32;20425;-55
2022/07/26 18:24:55;;;;;;;15.00;10.32;;;;;;;27.45;50.29;100052.09;18291208;32;20100;-55
2022/07/26 18:35:01;;;;;;;15.02;9.65;;;;;;;27.66;49.40;100061.19;18295891;32;20101;-57
2022/07/26 18:45:06;;;;;;;14.85;9.23;;;;;;;27.46;50.14;100080.59;18300887;32;20130;-58
2022/07/26 18:55:12;;;;;;;14.43;8.70;;;;;;;27.20;50.77;100088.88;18300914;32;20098;-58
2022/07/26 19:05:16;;;;;;;13.65;8.48;;;;;;;27.07;50.84;100097.84;18300392;32;20090;-57
2022/07/26 19:15:21;;;;;;;12.15;6.95;;;;;;;26.78;51.42;100102.72;18350958;32;20097;-55
2022/07/26 19:25:24;;;;;;;9.57;5.30;;;;;;;26.55;51.69;100098.13;18299671;32;20128;-55
2022/07/26 19:35:29;;;;;;;9.60;5.20;;;;;;;26.45;50.96;100092.59;18350591;32;20094;-54
2022/07/26 19:45:32;;;;;;;9.45;4.97;;;;;;;26.53;50.86;100099.22;18297601;32;20120;-57
2022/07/26 19:55:40;;;;;;;7.95;3.90;;;;;;;26.20;51.14;100095.41;18297485;32;20104;-57
2022/07/26 20:05:43;;;;;;;7.55;3.30;;;;;;;26.02;51.03;100095.75;18282569;31;480537;-56
2022/07/26 20:15:48;;;;;;;7.07;3.35;;;;;;;26.11;50.17;100099.56;18296158;32;20089;-57
2022/07/26 20:25:51;;;;;;;5.90;2.65;;;;;;;26.04;49.93;100104.50;18296453;32;20472;-57
2022/07/26 20:35:55;;;;;;;6.07;2.25;;;;;;;25.84;49.46;100124.63;18296060;32;20132;-57
2022/07/26 20:45:59;;;;;;;6.10;2.47;;;;;;;25.76;49.09;100133.22;18296473;32;20101;-57
2022/07/26 20:56:04;;;;;;;6.30;2.50;;;;;;;26.09;47.06;100137.12;18347186;32;20113;-57
2022/07/26 21:06:08;;;;;;;4.60;2.30;;;;;;;25.92;47.13;100140.16;18294786;32;20105;-57
2022/07/26 21:16:13;;;;;;;4.15;2.25;;;;;;;25.75;47.45;100148.41;18294095;32;20101;-58
2022/07/26 21:26:16;;;;;;;4.70;2.37;;;;;;;25.65;47.08;100144.63;18293955;32;20129;-58
2022/07/26 21:36:21;;;;;;;5.68;2.37;;;;;;;25.20;48.66;100147.69;18293411;32;20368;-56
2022/07/26 21:46:24;;;;;;;6.65;2.22;;;;;;;24.97;47.79;100163.44;18293035;32;20120;-56
2022/07/26 21:56:32;;;;;;;4.60;1.98;;;;;;;25.03;46.67;100173.69;18292527;32;20098;-56
2022/07/26 22:06:35;;;;;;;4.55;2.08;;;;;;;24.95;46.30;100181.41;18291295;32;20136;-56
2022/07/26 22:16:40;;;;;;;3.20;1.90;;;;;;;25.02;45.77;100165.81;18291570;32;20082;-55
2022/07/26 22:26:43;;;;;;;8.98;2.40;;;;;;;24.91;45.96;100163.84;18291484;32;20112;-55
2022/07/26 22:36:48;;;;;;;5.47;2.10;;;;;;;24.86;46.08;100168.66;18290779;32;20086;-55
2022/07/26 22:46:52;;;;;;;4.65;2.35;;;;;;;24.43;46.62;100170.47;18290288;32;20382;-56
2022/07/26 22:56:56;;;;;;;4.65;2.28;;;;;;;24.49;45.17;100166.53;18342361;32;20093;-55
2022/07/26 23:06:59;;;;;;;5.45;2.55;;;;;;;24.26;43.63;100184.88;18342909;32;20094;-55
2022/07/26 23:17:05;;;;;;;4.78;2.33;;;;;;;24.30;43.10;100194.38;18290481;32;20496;-55
2022/07/26 23:27:08;;;;;;;6.45;2.47;;;;;;;24.03;44.23;100199.63;18298492;32;20108;-55
2022/07/26 23:37:13;;;;;;;4.80;2.30;;;;;;;24.14;43.10;100205.16;18298065;32;20146;-55
2022/07/26 23:47:16;;;;;;;4.57;2.33;;;;;;;24.01;43.12;100206.87;18297810;32;20123;-55
2022/07/26 23:57:21;;;;;;;5.45;2.35;;;;;;;23.91;43.13;100220.75;18297722;32;20108;-55
